Time;durP1;ratioP1;P1;durP2;ratioP2;P2;SDS_P1;SDS_P2;PMS_P1;PMS_P2;Temp;Humidity;BMP_temperature;BMP_pressure;BME280_temperature;BME280_humidity;BME280_pressure;Samples;Min_cycle;Max_cycle;Signal;HPM_P1;HPM_P2
2022/07/08 00:01:36;;;;;;;2.97;1.65;;;20.80;64.50;;;;;;6215531;23;20004;-73
2022/07/08 00:04:02;;;;;;;1.88;1.60;;;20.80;64.60;;;;;;6189216;23;20005;-73
2022/07/08 00:06:27;;;;;;;1.88;1.70;;;20.70;64.50;;;;;;6215651;23;20005;-73
2022/07/08 00:08:53;;;;;;;1.83;1.73;;;20.80;64.60;;;;;;6215796;23;20086;-73
2022/07/08 00:11:18;;;;;;;1.60;1.40;;;20.70;64.50;;;;;;6215904;23;20001;-73
2022/07/08 00:13:44;;;;;;;1.95;1.75;;;20.80;64.50;;;;;;6215376;23;19997;-73
2022/07/08 00:16:10;;;;;;;1.85;1.75;;;20.70;65.50;;;;;;6189273;23;20001;-73
2022/07/08 00:18:35;;;;;;;1.73;1.40;;;20.70;64.50;;;;;;6215788;23;20028;-73
2022/07/08 00:21:01;;;;;;;1.80;1.40;;;20.70;64.50;;;;;;6215701;23;21063;-73
2022/07/08 00:23:26;;;;;;;2.17;1.60;;;20.70;64.40;;;;;;6215735;23;20003;-73
2022/07/08 00:25:52;;;;;;;2.03;1.90;;;20.70;64.40;;;;;;6189028;23;20008;-73
2022/07/08 00:28:18;;;;;;;1.80;1.70;;;20.70;64.40;;;;;;6188990;23;20011;-73
2022/07/08 00:30:43;;;;;;;2.08;1.77;;;20.70;64.40;;;;;;6215478;23;20039;-73
2022/07/08 00:33:09;;;;;;;1.58;1.48;;;20.70;64.40;;;;;;6215490;23;20000;-73
2022/07/08 00:35:34;;;;;;;2.85;2.15;;;20.70;64.50;;;;;;6215485;23;20027;-73
2022/07/08 00:38:00;;;;;;;2.10;1.90;;;20.70;64.40;;;;;;6215503;23;20000;-73
2022/07/08 00:40:26;;;;;;;1.75;1.65;;;20.70;64.40;;;;;;6215343;23;20026;-73
2022/07/08 00:42:52;;;;;;;2.30;2.10;;;20.70;64.40;;;;;;6215337;23;20032;-73
2022/07/08 00:45:17;;;;;;;2.08;1.80;;;20.70;64.30;;;;;;6188816;23;20005;-73
2022/07/08 00:47:43;;;;;;;2.30;1.83;;;20.70;64.40;;;;;;6189105;23;19997;-73
2022/07/08 00:50:10;;;;;;;2.25;1.90;;;20.70;64.30;;;;;;6188984;23;20459;-73
2022/07/08 00:52:39;;;;;;;2.20;2.00;;;20.70;64.30;;;;;;6188991;23;19997;-73
2022/07/08 00:55:06;;;;;;;2.28;1.98;;;20.70;64.30;;;;;;6189517;23;19997;-73
2022/07/08 00:57:32;;;;;;;2.10;1.90;;;20.70;64.30;;;;;;6164089;23;20012;-73
2022/07/08 00:59:58;;;;;;;2.00;1.88;;;20.70;64.30;;;;;;6188706;23;20008;-73
2022/07/08 01:02:24;;;;;;;2.17;2.00;;;20.70;64.30;;;;;;6164290;23;20001;-73
2022/07/08 01:04:50;;;;;;;1.63;1.52;;;20.60;64.20;;;;;;6215109;23;20011;-73
2022/07/08 01:07:15;;;;;;;2.08;1.88;;;20.60;64.20;;;;;;6139358;23;20027;-73
2022/07/08 01:09:41;;;;;;;1.75;1.65;;;20.60;64.20;;;;;;6188890;23;20075;-73
2022/07/08 01:12:07;;;;;;;2.35;2.00;;;20.60;64.20;;;;;;6214838;23;20055;-73
2022/07/08 01:14:33;;;;;;;2.55;1.90;;;20.60;64.10;;;;;;6188688;23;20011;-73
2022/07/08 01:16:58;;;;;;;1.77;1.67;;;20.60;64.00;;;;;;6188521;23;20071;-73
2022/07/08 01:19:24;;;;;;;2.03;1.92;;;20.60;63.90;;;;;;6188738;23;20059;-73
2022/07/08 01:21:50;;;;;;;3.00;2.25;;;20.60;64.00;;;;;;6188382;23;20314;-73
2022/07/08 01:24:17;;;;;;;4.25;1.70;;;20.60;64.00;;;;;;6215085;23;20467;-73
2022/07/08 01:26:42;;;;;;;2.03;1.92;;;20.60;64.00;;;;;;6214795;23;20004;-73
2022/07/08 01:29:08;;;;;;;2.10;1.90;;;20.60;64.10;;;;;;6188437;23;20008;-73
2022/07/08 01:31:33;;;;;;;1.65;1.55;;;20.60;64.10;;;;;;6215027;23;20438;-73
2022/07/08 01:33:59;;;;;;;1.73;1.58;;;20.60;64.20;;;;;;6188456;23;19997;-73
2022/07/08 01:36:25;;;;;;;2.00;1.60;;;20.60;64.20;;;;;;6214838;23;20062;-73
2022/07/08 01:38:50;;;;;;;2.92;1.77;;;20.60;64.30;;;;;;6214566;23;20017;-73
2022/07/08 01:41:16;;;;;;;1.65;1.55;;;20.60;64.10;;;;;;6188463;23;20418;-73
2022/07/08 01:43:42;;;;;;;1.88;1.77;;;20.60;64.10;;;;;;6188476;23;20532;-73
2022/07/08 01:46:07;;;;;;;1.90;1.80;;;20.60;64.10;;;;;;6214871;23;20000;-73
2022/07/08 01:48:34;;;;;;;1.70;1.60;;;20.60;64.00;;;;;;6214723;23;20025;-73
2022/07/08 01:51:00;;;;;;;1.88;1.77;;;20.60;63.80;;;;;;6214724;23;20000;-73
2022/07/08 01:53:25;;;;;;;1.75;1.65;;;20.60;63.90;;;;;;6214701;23;20078;-73
2022/07/08 01:55:51;;;;;;;1.67;1.50;;;20.60;63.80;;;;;;6214804;23;20008;-73
2022/07/08 01:58:17;;;;;;;2.10;1.90;;;20.60;63.80;;;;;;6214896;23;20004;-73
2022/07/08 02:00:43;;;;;;;1.90;1.80;;;20.60;63.80;;;;;;6214836;23;20011;-73
2022/07/08 02:03:08;;;;;;;1.77;1.67;;;20.60;63.80;;;;;;6188016;23;20008;-73
2022/07/08 02:05:34;;;;;;;2.22;1.50;;;20.50;63.70;;;;;;6214525;23;20007;-73
2022/07/08 02:08:02;;;;;;;1.88;1.60;;;20.50;63.70;;;;;;6214530;23;20396;-73
2022/07/08 02:10:28;;;;;;;2.10;1.60;;;20.50;63.60;;;;;;6163993;23;20011;-72
2022/07/08 02:12:54;;;;;;;1.90;1.70;;;20.50;63.60;;;;;;6188149;23;20403;-73
2022/07/08 02:15:19;;;;;;;1.80;1.70;;;20.50;63.50;;;;;;6214735;23;20001;-73
2022/07/08 02:17:45;;;;;;;1.63;1.52;;;20.50;63.60;;;;;;6188220;23;20027;-73
2022/07/08 02:20:12;;;;;;;1.27;1.27;;;20.50;63.50;;;;;;6214732;23;19996;-73
2022/07/08 02:22:38;;;;;;;1.63;1.52;;;20.50;63.50;;;;;;6163156;23;20546;-73
2022/07/08 02:25:04;;;;;;;1.55;1.45;;;20.50;63.50;;;;;;6217594;23;20001;-73
2022/07/08 02:27:31;;;;;;;1.95;1.70;;;20.50;63.50;;;;;;6217825;23;20006;-73
2022/07/08 02:29:56;;;;;;;1.30;1.20;;;20.50;63.50;;;;;;6166816;23;20501;-73
2022/07/08 02:32:22;;;;;;;1.60;1.50;;;20.50;63.60;;;;;;6217942;23;20035;-73
2022/07/08 02:34:47;;;;;;;1.88;1.45;;;20.50;63.70;;;;;;6191705;23;20001;-73
2022/07/08 02:37:13;;;;;;;1.70;1.60;;;20.50;63.70;;;;;;6191010;23;20453;-73
2022/07/08 02:39:39;;;;;;;1.50;1.40;;;20.40;63.70;;;;;;6217673;23;20579;-73
2022/07/08 02:42:05;;;;;;;1.67;1.58;;;20.50;63.70;;;;;;6217888;23;20008;-73
2022/07/08 02:44:31;;;;;;;2.03;1.48;;;20.40;63.70;;;;;;6191512;23;20011;-73
2022/07/08 02:46:56;;;;;;;1.48;1.38;;;20.40;63.70;;;;;;6166471;23;20004;-73
2022/07/08 02:49:22;;;;;;;1.45;1.35;;;20.40;63.70;;;;;;6191424;23;20001;-73
2022/07/08 02:51:48;;;;;;;1.38;1.38;;;20.50;63.70;;;;;;6217483;23;20009;-73
2022/07/08 02:54:14;;;;;;;1.77;1.67;;;20.50;63.60;;;;;;6217899;23;19997;-73
2022/07/08 02:56:39;;;;;;;1.50;1.40;;;20.40;63.60;;;;;;6217936;23;20008;-73
2022/07/08 02:59:05;;;;;;;1.50;1.40;;;20.40;63.60;;;;;;6191408;23;20011;-73
2022/07/08 03:01:31;;;;;;;2.30;1.38;;;20.40;63.70;;;;;;6217891;23;20027;-73
2022/07/08 03:03:56;;;;;;;1.70;1.60;;;20.40;63.70;;;;;;6191140;23;20032;-73
2022/07/08 03:06:22;;;;;;;1.77;1.63;;;20.40;63.70;;;;;;6190889;23;20457;-73
2022/07/08 03:08:48;;;;;;;2.67;1.80;;;20.40;63.60;;;;;;6191502;23;20544;-73
2022/07/08 03:11:13;;;;;;;1.50;1.40;;;20.40;63.70;;;;;;6191245;23;20020;-73
2022/07/08 03:13:39;;;;;;;1.45;1.35;;;20.40;63.70;;;;;;6191213;23;20001;-73
2022/07/08 03:16:05;;;;;;;1.42;1.33;;;20.40;63.70;;;;;;6191354;23;20449;-73
2022/07/08 03:18:31;;;;;;;1.40;1.30;;;20.40;63.70;;;;;;6191348;23;20009;-73
2022/07/08 03:20:57;;;;;;;1.77;1.30;;;20.40;63.80;;;;;;6191198;23;20027;-73
2022/07/08 03:23:22;;;;;;;1.55;1.40;;;20.40;63.80;;;;;;6217744;23;20365;-73
2022/07/08 03:25:48;;;;;;;2.33;1.30;;;20.40;63.80;;;;;;6190996;23;20448;-73
2022/07/08 03:28:14;;;;;;;1.60;1.50;;;20.40;63.80;;;;;;6217802;23;20075;-73
2022/07/08 03:30:40;;;;;;;1.40;1.30;;;20.40;63.70;;;;;;6217748;23;20132;-73
2022/07/08 03:33:06;;;;;;;1.38;1.23;;;20.40;63.70;;;;;;6217513;23;20001;-73
2022/07/08 03:35:31;;;;;;;1.35;1.27;;;20.40;63.60;;;;;;6216406;23;20000;-73
2022/07/08 03:37:57;;;;;;;1.52;1.42;;;20.40;63.40;;;;;;6189526;23;20008;-73
2022/07/08 03:43:06;;;;;;;1.40;1.30;;;20.30;63.30;;;;;;6193636;23;20043;-73
2022/07/08 03:45:32;;;;;;;1.60;1.50;;;20.30;63.40;;;;;;6215926;23;19996;-73
2022/07/08 03:48:00;;;;;;;1.58;1.40;;;20.30;63.30;;;;;;6216061;23;20035;-73
2022/07/08 03:50:26;;;;;;;1.52;1.40;;;20.30;63.30;;;;;;6189795;23;20001;-73
2022/07/08 03:52:52;;;;;;;1.50;1.40;;;20.30;63.30;;;;;;6189619;23;20032;-73
2022/07/08 03:55:20;;;;;;;1.10;1.10;;;20.30;63.20;;;;;;6189469;23;20051;-73
2022/07/08 03:57:45;;;;;;;2.05;1.38;;;20.30;63.10;;;;;;6190130;23;20007;-73
2022/07/08 04:00:11;;;;;;;0.95;0.95;;;20.30;63.10;;;;;;6189555;23;20071;-73
2022/07/08 04:02:37;;;;;;;1.27;1.17;;;20.30;63.00;;;;;;6215692;23;20000;-73
2022/07/08 04:05:03;;;;;;;2.05;1.38;;;20.30;63.00;;;;;;6215467;23;20001;-73
2022/07/08 04:07:29;;;;;;;1.92;1.40;;;20.30;62.90;;;;;;6189335;23;20004;-73
2022/07/08 04:09:54;;;;;;;1.40;1.30;;;20.20;62.80;;;;;;6215926;23;20096;-73
2022/07/08 04:12:20;;;;;;;1.13;1.10;;;20.20;62.80;;;;;;6215841;23;19996;-73
2022/07/08 04:14:46;;;;;;;1.00;1.00;;;20.30;62.80;;;;;;6215884;23;20001;-73
2022/07/08 04:17:11;;;;;;;1.10;1.10;;;20.30;62.70;;;;;;6189349;23;20008;-73
2022/07/08 04:19:37;;;;;;;1.20;1.10;;;20.30;62.60;;;;;;6215436;23;20001;-73
2022/07/08 04:22:03;;;;;;;1.40;1.30;;;20.20;62.50;;;;;;6215817;23;20007;-73
2022/07/08 04:24:28;;;;;;;1.42;1.35;;;20.20;62.50;;;;;;6189084;23;20020;-73
2022/07/08 04:26:54;;;;;;;1.40;1.20;;;20.20;62.40;;;;;;6215637;23;20004;-73
2022/07/08 04:29:19;;;;;;;1.50;1.40;;;20.20;62.50;;;;;;6215606;23;20050;-73
2022/07/08 04:31:45;;;;;;;1.08;1.08;;;20.20;62.50;;;;;;6215611;23;19997;-73
2022/07/08 04:34:11;;;;;;;1.25;1.10;;;20.20;62.50;;;;;;6215329;23;20001;-73
2022/07/08 04:36:36;;;;;;;1.10;0.98;;;20.20;62.40;;;;;;6189007;23;20449;-73
2022/07/08 04:39:02;;;;;;;2.88;1.60;;;20.20;62.60;;;;;;6215243;23;20013;-73
2022/07/08 04:41:27;;;;;;;1.13;1.13;;;20.20;62.50;;;;;;6189259;23;20001;-73
2022/07/08 04:43:53;;;;;;;1.55;1.45;;;20.20;62.40;;;;;;6215693;23;20011;-73
2022/07/08 04:46:19;;;;;;;1.38;1.27;;;20.20;62.40;;;;;;6188919;23;20012;-73
2022/07/08 04:48:44;;;;;;;3.83;1.50;;;20.10;62.30;;;;;;6215340;23;20008;-73
2022/07/08 04:51:10;;;;;;;2.40;1.50;;;20.10;62.30;;;;;;6188814;23;20315;-73
2022/07/08 04:53:36;;;;;;;1.95;1.75;;;20.10;62.30;;;;;;6188946;23;20031;-73
2022/07/08 04:56:01;;;;;;;2.70;1.80;;;20.10;62.20;;;;;;6188987;23;20051;-73
2022/07/08 04:58:27;;;;;;;1.90;1.80;;;20.10;62.20;;;;;;6215369;23;20001;-73
2022/07/08 05:00:52;;;;;;;1.60;1.50;;;20.10;62.20;;;;;;6215456;23;20071;-73
2022/07/08 05:03:18;;;;;;;1.88;1.50;;;20.10;63.20;;;;;;6215013;23;20009;-73
2022/07/08 05:05:44;;;;;;;1.38;1.27;;;20.10;62.30;;;;;;6188523;23;20060;-73
2022/07/08 05:08:09;;;;;;;2.15;1.63;;;20.10;62.20;;;;;;6215223;23;20429;-73
2022/07/08 05:10:35;;;;;;;1.75;1.52;;;20.10;62.20;;;;;;6215274;23;20076;-73
2022/07/08 05:13:02;;;;;;;1.75;1.58;;;20.10;62.20;;;;;;6188661;23;20004;-73
2022/07/08 05:15:27;;;;;;;1.60;1.50;;;20.00;62.40;;;;;;6215213;23;20000;-73
2022/07/08 05:17:53;;;;;;;1.60;1.50;;;20.00;62.50;;;;;;6214936;23;20029;-73
2022/07/08 05:20:19;;;;;;;1.73;1.48;;;20.00;62.40;;;;;;6215173;23;19996;-73
2022/07/08 05:22:44;;;;;;;2.05;1.42;;;20.00;62.50;;;;;;6215245;23;20340;-73
2022/07/08 05:25:10;;;;;;;2.53;1.50;;;20.00;62.50;;;;;;6163815;23;20004;-73
2022/07/08 05:27:36;;;;;;;2.90;1.80;;;20.00;62.50;;;;;;6163624;23;20075;-73
2022/07/08 05:30:03;;;;;;;2.10;1.83;;;20.00;62.60;;;;;;6163869;23;20003;-73
2022/07/08 05:32:29;;;;;;;2.22;2.00;;;20.00;62.70;;;;;;6188293;23;20518;-73
2022/07/08 05:34:54;;;;;;;2.08;1.90;;;20.00;62.70;;;;;;6188719;23;19996;-73
2022/07/08 05:37:20;;;;;;;2.33;2.00;;;20.00;62.80;;;;;;6214825;23;20051;-73
2022/07/08 05:39:45;;;;;;;2.53;2.13;;;20.00;62.90;;;;;;6214683;23;20079;-73
2022/07/08 05:42:11;;;;;;;2.42;2.20;;;20.00;62.90;;;;;;6215009;23;20004;-73
2022/07/08 05:44:37;;;;;;;2.05;1.88;;;20.00;63.00;;;;;;6214912;23;20014;-73
2022/07/08 05:47:04;;;;;;;3.45;2.38;;;20.00;63.10;;;;;;6163305;23;20008;-73
2022/07/08 05:49:29;;;;;;;2.70;2.50;;;20.00;63.10;;;;;;6214913;23;20547;-73
2022/07/08 05:51:55;;;;;;;3.03;2.83;;;20.00;63.10;;;;;;6188440;23;20027;-73
2022/07/08 05:54:21;;;;;;;2.60;2.40;;;20.00;63.20;;;;;;6214800;23;20000;-73
2022/07/08 05:56:46;;;;;;;3.50;2.70;;;20.00;63.30;;;;;;6163681;23;20047;-73
2022/07/08 05:59:12;;;;;;;2.90;2.70;;;20.00;63.40;;;;;;6163068;23;20004;-73
2022/07/08 06:01:38;;;;;;;2.90;2.60;;;20.00;63.50;;;;;;6188136;23;20009;-73
2022/07/08 06:04:03;;;;;;;2.78;2.58;;;20.00;63.50;;;;;;6188397;23;20005;-73
2022/07/08 06:06:29;;;;;;;2.53;2.33;;;20.00;63.70;;;;;;6214861;23;20334;-73
2022/07/08 06:08:54;;;;;;;2.30;2.08;;;20.00;63.80;;;;;;6214869;23;20004;-73
2022/07/08 06:11:20;;;;;;;2.55;2.08;;;20.00;63.80;;;;;;6214776;23;20008;-73
2022/07/08 06:13:46;;;;;;;1.90;1.80;;;20.00;64.00;;;;;;6214738;23;20368;-73
2022/07/08 06:16:11;;;;;;;2.10;2.00;;;20.00;64.00;;;;;;6187908;23;20344;-73
2022/07/08 06:18:37;;;;;;;2.13;1.83;;;20.00;64.00;;;;;;6214603;23;20005;-73
2022/07/08 06:21:03;;;;;;;2.03;1.92;;;20.00;64.10;;;;;;6214721;23;20001;-73
2022/07/08 06:23:29;;;;;;;2.35;1.70;;;20.00;64.10;;;;;;6163360;23;20556;-73
2022/07/08 06:25:54;;;;;;;1.55;1.45;;;20.00;64.20;;;;;;6188213;23;20437;-73
2022/07/08 06:28:20;;;;;;;1.75;1.50;;;20.00;64.30;;;;;;6187934;23;20004;-73
2022/07/08 06:30:45;;;;;;;1.60;1.50;;;20.00;64.40;;;;;;6214477;23;20004;-73
2022/07/08 06:33:11;;;;;;;2.03;1.50;;;20.00;64.40;;;;;;6214521;23;20000;-73
2022/07/08 06:35:37;;;;;;;2.45;1.42;;;20.00;64.40;;;;;;6188100;23;20004;-73
2022/07/08 06:38:02;;;;;;;1.75;1.33;;;20.00;64.30;;;;;;6214574;23;20020;-73
2022/07/08 06:40:28;;;;;;;1.50;1.40;;;20.00;64.40;;;;;;6188102;23;20441;-73
2022/07/08 06:42:54;;;;;;;1.92;1.23;;;20.00;64.40;;;;;;6214543;23;20472;-73
2022/07/08 06:45:19;;;;;;;2.30;1.45;;;20.00;64.40;;;;;;6162894;23;20005;-73
2022/07/08 06:47:45;;;;;;;1.88;1.30;;;20.00;64.50;;;;;;6214513;23;20102;-73
2022/07/08 06:50:11;;;;;;;1.33;1.23;;;20.00;64.50;;;;;;6188167;23;20062;-73
2022/07/08 06:52:36;;;;;;;1.35;1.25;;;20.00;64.60;;;;;;6187976;23;20000;-73
2022/07/08 06:55:02;;;;;;;1.63;1.52;;;20.00;64.60;;;;;;6187928;23;20441;-73
2022/07/08 06:57:28;;;;;;;1.50;1.40;;;20.00;64.70;;;;;;6188076;23;20012;-73
2022/07/08 06:59:54;;;;;;;1.42;1.35;;;20.00;64.70;;;;;;6214308;23;20035;-73
2022/07/08 07:02:20;;;;;;;1.30;1.20;;;20.00;64.70;;;;;;6163198;23;20051;-73
2022/07/08 07:04:46;;;;;;;1.42;1.33;;;20.00;64.80;;;;;;6188059;23;20084;-73
2022/07/08 07:07:11;;;;;;;1.50;1.40;;;20.00;64.80;;;;;;6187778;23;20076;-73
2022/07/08 07:09:38;;;;;;;1.25;1.15;;;20.00;64.80;;;;;;6188243;23;20341;-73
2022/07/08 07:12:07;;;;;;;2.08;1.60;;;20.00;64.80;;;;;;6190155;23;20039;-73
2022/07/08 07:14:33;;;;;;;1.63;1.40;;;20.00;66.10;;;;;;6189664;23;20438;-73
2022/07/08 07:16:59;;;;;;;1.50;1.40;;;20.00;65.10;;;;;;6216444;23;20495;-73
2022/07/08 07:19:26;;;;;;;5.72;1.85;;;20.00;65.10;;;;;;6190019;23;20001;-73
2022/07/08 07:21:52;;;;;;;1.13;1.10;;;20.00;65.10;;;;;;6189999;23;20421;-73
2022/07/08 07:24:18;;;;;;;1.30;1.20;;;20.00;65.00;;;;;;6164847;23;20000;-73
2022/07/08 07:26:43;;;;;;;1.65;1.55;;;20.00;65.00;;;;;;6216300;23;20000;-73
2022/07/08 07:29:09;;;;;;;2.67;1.30;;;20.00;65.10;;;;;;6215862;23;20004;-73
2022/07/08 07:31:35;;;;;;;1.65;1.55;;;20.00;65.10;;;;;;6216079;23;20064;-73
2022/07/08 07:34:02;;;;;;;1.42;1.33;;;20.00;65.20;;;;;;6189779;23;20020;-73
2022/07/08 07:36:27;;;;;;;1.00;0.95;;;20.00;65.30;;;;;;6215994;23;20004;-73
2022/07/08 07:38:53;;;;;;;1.55;1.40;;;20.00;65.20;;;;;;6189546;23;20027;-73
2022/07/08 07:41:19;;;;;;;1.63;1.52;;;20.00;65.50;;;;;;6189687;23;20076;-73
2022/07/08 07:43:45;;;;;;;1.17;1.17;;;20.00;65.50;;;;;;6189567;23;20012;-73
2022/07/08 07:46:10;;;;;;;1.38;1.27;;;20.00;65.50;;;;;;6189524;23;20011;-73
2022/07/08 07:48:36;;;;;;;1.20;1.10;;;20.00;65.50;;;;;;6189450;23;20004;-73
2022/07/08 07:51:02;;;;;;;1.45;1.30;;;20.00;65.50;;;;;;6164685;23;20383;-73
2022/07/08 07:53:27;;;;;;;1.33;1.20;;;20.00;65.40;;;;;;6164744;23;20039;-73
2022/07/08 07:55:53;;;;;;;1.27;1.20;;;20.00;65.50;;;;;;6189140;23;20090;-73
2022/07/08 07:58:19;;;;;;;1.50;1.40;;;20.00;65.40;;;;;;6215908;23;20015;-73
2022/07/08 08:00:45;;;;;;;1.40;1.30;;;20.00;65.60;;;;;;6215800;23;20083;-73
2022/07/08 08:03:11;;;;;;;0.90;0.90;;;20.00;65.50;;;;;;6215617;23;20000;-73
2022/07/08 08:05:38;;;;;;;1.30;1.20;;;20.00;65.50;;;;;;6215810;23;20055;-73
2022/07/08 08:08:04;;;;;;;1.20;1.10;;;20.10;65.50;;;;;;6215971;23;20088;-73
2022/07/08 08:10:30;;;;;;;0.88;0.88;;;20.10;65.40;;;;;;6215325;23;20457;-73
2022/07/08 08:12:55;;;;;;;0.93;0.82;;;20.10;65.30;;;;;;6189245;23;20028;-73
2022/07/08 08:15:22;;;;;;;1.02;0.90;;;20.10;65.30;;;;;;6189237;23;20001;-73
2022/07/08 08:17:48;;;;;;;0.98;0.90;;;20.10;65.30;;;;;;6215740;23;20444;-73
2022/07/08 08:20:13;;;;;;;0.70;0.70;;;20.10;65.30;;;;;;6164287;23;20020;-73
2022/07/08 08:22:39;;;;;;;0.90;0.90;;;20.10;65.40;;;;;;6215284;23;20004;-73
2022/07/08 08:25:05;;;;;;;1.10;0.90;;;20.10;65.50;;;;;;6189027;23;20000;-73
2022/07/08 08:27:31;;;;;;;0.95;0.80;;;20.10;65.40;;;;;;6215717;23;20593;-73
2022/07/08 08:29:56;;;;;;;0.70;0.70;;;20.10;65.30;;;;;;6215600;23;20004;-73
2022/07/08 08:32:22;;;;;;;1.75;0.90;;;20.10;65.50;;;;;;6215600;23;20024;-73
2022/07/08 08:34:48;;;;;;;0.80;0.80;;;20.10;65.60;;;;;;6215757;23;20456;-73
2022/07/08 08:37:13;;;;;;;0.85;0.65;;;20.10;65.30;;;;;;6188995;23;20005;-73
2022/07/08 08:39:39;;;;;;;0.60;0.60;;;20.10;65.30;;;;;;6215060;23;20020;-73
2022/07/08 08:42:06;;;;;;;0.85;0.85;;;20.10;65.40;;;;;;6215748;23;20072;-73
2022/07/08 08:44:32;;;;;;;1.60;1.15;;;20.10;65.50;;;;;;6189188;23;20000;-73
2022/07/08 08:46:57;;;;;;;0.75;0.75;;;20.10;65.50;;;;;;6188982;23;20011;-73
2022/07/08 08:49:23;;;;;;;0.90;0.73;;;20.10;65.40;;;;;;6164180;23;19996;-73
2022/07/08 08:51:49;;;;;;;1.02;1.00;;;20.20;65.40;;;;;;6188969;23;20008;-73
2022/07/08 08:54:19;;;;;;;0.90;0.90;;;20.20;65.70;;;;;;6215292;23;20040;-73
2022/07/08 08:56:48;;;;;;;1.17;1.02;;;20.20;65.60;;;;;;6165168;23;20004;-73
2022/07/08 08:59:17;;;;;;;1.77;0.82;;;20.20;65.60;;;;;;6164236;23;20430;-73
2022/07/08 09:01:43;;;;;;;0.80;0.80;;;20.20;65.70;;;;;;6164258;23;20007;-73
2022/07/08 09:04:10;;;;;;;0.98;0.95;;;20.20;65.70;;;;;;6164193;23;20004;-73
2022/07/08 09:06:39;;;;;;;1.23;0.95;;;20.20;65.70;;;;;;6164573;23;20555;-73
2022/07/08 09:09:05;;;;;;;0.85;0.77;;;20.20;65.70;;;;;;6214984;23;20000;-73
2022/07/08 09:11:32;;;;;;;1.13;0.82;;;20.20;65.70;;;;;;6164195;23;20001;-73
2022/07/08 09:14:20;;;;;;;0.90;0.90;;;20.20;65.70;;;;;;6189091;23;20031;-73
2022/07/08 09:17:16;;;;;;;0.95;0.90;;;20.20;65.70;;;;;;6215289;23;20011;-73
2022/07/08 09:19:43;;;;;;;0.60;0.60;;;20.20;65.70;;;;;;6215139;23;20433;-73
2022/07/08 09:22:09;;;;;;;0.70;0.70;;;20.20;65.50;;;;;;6215293;23;19996;-73
2022/07/08 09:24:35;;;;;;;0.70;0.70;;;20.20;65.50;;;;;;6188420;23;20015;-73
2022/07/08 09:27:05;;;;;;;0.80;0.70;;;20.20;65.50;;;;;;6163982;23;20014;-73
2022/07/08 09:29:31;;;;;;;0.65;0.65;;;20.30;65.50;;;;;;6188614;23;20026;-73
2022/07/08 09:32:13;;;;;;;0.60;0.60;;;20.30;65.50;;;;;;6214933;23;20473;-73
2022/07/08 09:34:39;;;;;;;1.60;0.88;;;20.20;65.50;;;;;;6163475;23;20016;-73
2022/07/08 09:37:11;;;;;;;0.80;0.80;;;20.20;65.50;;;;;;6163802;23;20004;-73
2022/07/08 09:39:37;;;;;;;0.70;0.70;;;20.20;65.50;;;;;;6163466;23;20017;-73
2022/07/08 09:42:06;;;;;;;0.90;0.88;;;20.30;65.50;;;;;;6163823;23;20011;-73
2022/07/08 09:44:32;;;;;;;0.70;0.70;;;20.30;65.50;;;;;;6188479;23;20011;-73
2022/07/08 09:46:58;;;;;;;0.70;0.63;;;20.30;65.40;;;;;;6188463;23;20005;-73
2022/07/08 09:49:30;;;;;;;1.00;0.80;;;20.30;65.40;;;;;;6188634;23;20051;-73
2022/07/08 09:51:59;;;;;;;0.95;0.70;;;20.30;65.40;;;;;;6163455;23;20007;-73
2022/07/08 09:54:26;;;;;;;0.95;0.80;;;20.30;65.30;;;;;;6164773;23;20023;-73
2022/07/08 09:57:07;;;;;;;0.80;0.80;;;20.30;65.30;;;;;;6188850;23;20028;-73
2022/07/08 09:59:34;;;;;;;1.17;0.93;;;20.30;65.20;;;;;;6188460;23;20381;-73
2022/07/08 10:02:00;;;;;;;1.33;0.85;;;20.30;65.20;;;;;;6188621;23;20087;-73
2022/07/08 10:04:26;;;;;;;1.27;0.90;;;20.30;65.20;;;;;;6214726;23;20000;-73
2022/07/08 10:06:52;;;;;;;0.77;0.75;;;20.40;66.20;;;;;;6163260;23;20000;-73
2022/07/08 10:09:18;;;;;;;1.13;0.80;;;20.30;65.00;;;;;;6214708;23;20075;-73
2022/07/08 10:11:44;;;;;;;0.60;0.60;;;20.30;65.00;;;;;;6163740;23;20001;-73
2022/07/08 10:14:10;;;;;;;0.93;0.50;;;20.40;65.10;;;;;;6188512;23;20382;-73
2022/07/08 10:16:37;;;;;;;0.60;0.60;;;20.30;65.10;;;;;;6188260;23;20027;-73
2022/07/08 10:19:03;;;;;;;0.85;0.70;;;20.40;65.00;;;;;;6163722;23;20000;-73
2022/07/08 10:21:29;;;;;;;0.77;0.77;;;20.40;65.00;;;;;;6163384;23;20005;-73
2022/07/08 10:23:55;;;;;;;1.05;0.60;;;20.40;65.10;;;;;;6163412;23;20349;-73
2022/07/08 10:26:32;;;;;;;0.68;0.68;;;20.40;65.10;;;;;;6188134;23;20028;-73
2022/07/08 10:29:04;;;;;;;0.50;0.50;;;20.40;65.10;;;;;;6165712;23;20063;-73
2022/07/08 10:31:30;;;;;;;0.73;0.68;;;20.40;65.00;;;;;;6188166;23;20441;-73
2022/07/08 10:34:00;;;;;;;0.80;0.80;;;20.40;65.00;;;;;;6187959;23;20011;-73
2022/07/08 10:36:25;;;;;;;0.50;0.50;;;20.40;64.90;;;;;;6162970;23;20349;-73
2022/07/08 10:38:51;;;;;;;0.60;0.60;;;20.40;64.80;;;;;;6187985;23;20015;-73
2022/07/08 10:41:21;;;;;;;0.90;0.50;;;20.40;64.50;;;;;;6188033;23;20009;-73
2022/07/08 10:43:54;;;;;;;0.82;0.70;;;20.40;64.60;;;;;;6188053;23;20012;-73
2022/07/08 10:46:26;;;;;;;0.50;0.50;;;20.40;64.70;;;;;;6190063;23;20508;-73
2022/07/08 10:48:56;;;;;;;0.60;0.60;;;20.40;64.70;;;;;;6190825;23;20023;-73
2022/07/08 10:51:24;;;;;;;0.77;0.70;;;20.40;64.60;;;;;;6189932;23;19996;-73
2022/07/08 10:53:54;;;;;;;0.75;0.57;;;20.40;64.50;;;;;;6216667;23;20077;-73
2022/07/08 10:56:48;;;;;;;0.80;0.57;;;20.40;64.60;;;;;;6165319;23;20008;-73
2022/07/08 10:59:18;;;;;;;0.90;0.70;;;20.40;64.70;;;;;;6216540;23;20039;-73
2022/07/08 11:02:00;;;;;;;0.93;0.80;;;20.40;64.50;;;;;;6189860;23;20001;-73
2022/07/08 11:04:34;;;;;;;0.85;0.70;;;20.50;65.40;;;;;;6216279;23;20007;-73
2022/07/08 11:07:26;;;;;;;1.25;0.80;;;20.50;64.50;;;;;;6216294;23;20000;-73
2022/07/08 11:09:58;;;;;;;0.52;0.50;;;20.50;64.30;;;;;;6216494;23;20051;-73
2022/07/08 11:12:26;;;;;;;2.40;0.63;;;20.50;64.50;;;;;;6216112;23;20441;-73
2022/07/08 11:14:54;;;;;;;0.57;0.50;;;20.50;64.50;;;;;;6216535;23;20024;-73
2022/07/08 11:17:21;;;;;;;2.67;0.80;;;20.50;64.30;;;;;;6165362;23;20036;-73
2022/07/08 11:19:47;;;;;;;0.60;0.60;;;20.50;64.30;;;;;;6216065;23;20084;-73
2022/07/08 11:22:13;;;;;;;0.50;0.50;;;20.50;64.30;;;;;;6164979;23;20322;-73
2022/07/08 11:24:40;;;;;;;0.50;0.50;;;20.50;64.40;;;;;;6164798;23;20023;-73
2022/07/08 11:27:06;;;;;;;0.98;0.60;;;20.50;64.40;;;;;;6189902;23;20004;-73
2022/07/08 11:29:32;;;;;;;0.93;0.75;;;20.50;64.30;;;;;;6189796;23;20027;-73
2022/07/08 11:32:02;;;;;;;1.05;0.70;;;20.60;64.40;;;;;;6164920;23;20005;-73
2022/07/08 11:34:28;;;;;;;1.17;0.70;;;20.60;64.40;;;;;;6164695;23;20040;-73
2022/07/08 11:36:57;;;;;;;1.42;0.52;;;20.60;64.50;;;;;;6216224;23;20331;-73
2022/07/08 11:39:23;;;;;;;1.15;0.68;;;20.60;64.60;;;;;;6189590;23;20473;-73
2022/07/08 11:41:48;;;;;;;0.60;0.60;;;20.60;64.60;;;;;;6216019;23;20000;-73
2022/07/08 11:44:18;;;;;;;0.80;0.52;;;20.60;64.50;;;;;;6215966;23;20005;-73
2022/07/08 11:46:48;;;;;;;0.95;0.70;;;20.60;64.40;;;;;;6190483;23;20005;-73
2022/07/08 11:49:14;;;;;;;1.52;0.85;;;20.60;64.40;;;;;;6189487;23;19997;-73
2022/07/08 11:51:46;;;;;;;1.02;0.80;;;20.60;64.40;;;;;;6189567;23;20058;-73
2022/07/08 11:54:15;;;;;;;0.70;0.70;;;20.60;64.40;;;;;;6216189;23;19997;-73
2022/07/08 11:56:41;;;;;;;0.90;0.70;;;20.60;64.40;;;;;;6188788;23;20008;-73
2022/07/08 11:59:07;;;;;;;0.73;0.70;;;20.60;64.30;;;;;;6189446;23;20004;-73
2022/07/08 12:01:35;;;;;;;0.60;0.60;;;20.70;64.50;;;;;;6189522;23;20005;-73
2022/07/08 12:04:07;;;;;;;0.60;0.60;;;20.70;64.50;;;;;;6215736;23;20074;-73
2022/07/08 12:06:34;;;;;;;0.65;0.50;;;20.70;64.40;;;;;;6189165;23;20047;-73
2022/07/08 12:09:08;;;;;;;0.60;0.52;;;20.70;64.40;;;;;;6164818;23;19993;-73
2022/07/08 12:11:39;;;;;;;1.52;0.70;;;20.70;64.30;;;;;;6189502;23;20004;-73
2022/07/08 12:14:07;;;;;;;0.73;0.70;;;20.70;64.40;;;;;;6189749;23;20028;-73
2022/07/08 12:17:05;;;;;;;0.65;0.50;;;20.70;64.50;;;;;;6189190;23;20087;-73
2022/07/08 12:19:32;;;;;;;1.10;0.60;;;20.70;64.30;;;;;;6065784;23;20015;-73
2022/07/08 12:21:59;;;;;;;0.80;0.68;;;20.70;64.20;;;;;;6065886;23;20082;-73
2022/07/08 12:24:27;;;;;;;0.60;0.60;;;20.70;64.20;;;;;;6065625;23;20484;-73
2022/07/08 12:26:56;;;;;;;0.70;0.52;;;20.70;64.20;;;;;;6065802;23;20444;-73
2022/07/08 12:29:22;;;;;;;2.20;0.60;;;20.70;64.20;;;;;;6065671;23;20131;-73
2022/07/08 12:31:47;;;;;;;1.67;0.60;;;20.70;64.30;;;;;;6065460;23;20003;-73
2022/07/08 12:34:17;;;;;;;0.50;0.50;;;20.70;64.00;;;;;;6065844;23;20010;-73
2022/07/08 12:36:43;;;;;;;0.80;0.70;;;20.80;64.00;;;;;;6065697;23;20013;-73
2022/07/08 12:39:14;;;;;;;0.77;0.70;;;20.80;64.10;;;;;;6065464;23;20023;-73
2022/07/08 12:41:40;;;;;;;1.13;0.60;;;20.80;63.90;;;;;;6065595;23;20010;-73
2022/07/08 12:44:32;;;;;;;0.50;0.50;;;20.80;63.70;;;;;;6065698;23;20530;-73
2022/07/08 12:46:58;;;;;;;0.60;0.60;;;20.80;63.80;;;;;;6064952;23;20071;-73
2022/07/08 12:49:25;;;;;;;0.60;0.60;;;20.80;63.80;;;;;;6065706;23;20380;-73